1994 EDMEA (1994012S09075)


On this page: IBTrACS data - Map and Plots - Positions - Intensities - Original source data

Summary

Start Jan 11
End Jan 19
Basin SI
LMI 52 kt
Sources jtwc_sh
reunion
neumann
In WMO? Yes
Previous storm 1994 FARAH (SI)
Previous in basin 1994 FARAH (SI)
Concurrent storms 1994 REWA (SP)
1994 DAISY (SI)
1994 FARAH (SI)
1994 EDMEA (SI)
1994 SARAH (SP)
1994 SARAH (SP)
Next in basin 1994 QUENTON (SI)
Next storm 1994 SARAH (SP)

top of page IBTrACS Data: File Access

top of page HURSAT Data: File Access

Image of storm

top of page Plots:

Map of storm track will not appear if FTP is down
Time series of cyclone Maximum Sustained Wind will not appear if FTP is down
Time series of cyclone Minimum Central Pressure will not appear if FTP is down

top of page Track Data:Position

jtwc_sh reunion neumann
Date Lat Lon Lat Lon Lat Lon
1994-01-11 12:00:00 -9.4 74.6 -9.4 74.6
1994-01-11 18:00:00 -9.6 74.0 -9.6 74.0
1994-01-12 00:00:00 -9.8 73.5 -9.8 73.5
1994-01-12 06:00:00 -10.1 73.1 -10.1 73.1
1994-01-12 12:00:00 -10.4 72.8 -10.4 72.8
1994-01-12 18:00:00 -10.8 72.5 -10.8 72.5
1994-01-13 00:00:00 -11.3 72.5 -11.3 72.5
1994-01-13 06:00:00 -11.8 72.3 -11.7 72.4 -11.8 72.3
1994-01-13 12:00:00 -12.1 71.6 -12.5 71.9 -12.1 71.6
1994-01-13 18:00:00 -12.4 71.0 -12.7 71.0 -12.4 71.0
1994-01-14 00:00:00 -12.5 70.3 -12.7 70.1 -12.5 70.3
1994-01-14 06:00:00 -12.6 69.4 -12.7 69.2 -12.6 69.4
1994-01-14 12:00:00 -13.0 68.6 -12.9 68.4 -13.0 68.6
1994-01-14 18:00:00 -13.5 68.3 -13.6 68.2 -13.5 68.3
1994-01-15 00:00:00 -14.2 68.0 -14.5 68.1 -14.2 68.0
1994-01-15 06:00:00 -14.9 67.5 -15.1 68.0 -14.9 67.5
1994-01-15 12:00:00 -15.7 67.0 -15.7 67.9 -15.7 67.0
1994-01-15 18:00:00 -16.6 66.8 -16.7 67.7 -16.6 66.8
1994-01-16 00:00:00 -17.6 66.8 -17.9 67.3 -17.6 66.8
1994-01-16 06:00:00 -18.6 66.8 -18.8 66.9 -18.6 66.8
1994-01-16 12:00:00 -19.7 66.3 -19.6 66.4 -19.7 66.3
1994-01-16 18:00:00 -20.7 65.1 -20.7 65.5 -20.7 65.1
1994-01-17 00:00:00 -21.6 64.7 -21.7 64.8 -21.6 64.7
1994-01-17 06:00:00 -22.7 64.4 -22.8 64.5 -22.7 64.4
1994-01-17 12:00:00 -23.5 64.3 -24.2 64.5 -23.5 64.3
jtwc_sh reunion neumann
1994-01-17 18:00:00 -24.2 64.3 -25.2 64.8 -24.2 64.3
1994-01-18 00:00:00 -25.4 64.5 -26.0 65.2 -25.4 64.5
1994-01-18 06:00:00 -26.8 65.1 -26.8 65.8 -26.8 65.1
1994-01-18 12:00:00 -27.9 66.2 -27.9 67.1 -27.9 66.2
1994-01-18 18:00:00 -28.7 68.0 -28.8 68.9 -28.7 68.0
1994-01-19 00:00:00 -29.6 71.0 -29.6 71.2 -29.6 71.0
1994-01-19 06:00:00 -30.3 74.1 -30.0 74.1 -30.3 74.1
1994-01-19 12:00:00 -30.1 77.3
1994-01-19 18:00:00 -30.2 80.5

top of pageTrack Data:Intensity

jtwc_sh reunion neumann
Date Wind Pres Wind Pres Wind Pres
1994-01-11 12:00:00 20. 20.
1994-01-11 18:00:00 20. 20.
1994-01-12 00:00:00 20. 20.
1994-01-12 06:00:00 20. 20.
1994-01-12 12:00:00 20. 20.
1994-01-12 18:00:00 20. 20.
1994-01-13 00:00:00 25. 25.
1994-01-13 06:00:00 25. 25. 998. 25.
1994-01-13 12:00:00 25. 28. 997. 25.
1994-01-13 18:00:00 30. 30. 995. 30.
1994-01-14 00:00:00 35. 35. 992. 35.
1994-01-14 06:00:00 40. 35. 990. 40.
1994-01-14 12:00:00 45. 35. 990. 45.
1994-01-14 18:00:00 50. 42. 985. 50.
1994-01-15 00:00:00 50. 42. 985. 50.
1994-01-15 06:00:00 45. 42. 985. 45.
1994-01-15 12:00:00 45. 42. 985. 45.
1994-01-15 18:00:00 50. 42. 985. 50.
1994-01-16 00:00:00 50. 42. 985. 50.
1994-01-16 06:00:00 45. 42. 985. 45.
1994-01-16 12:00:00 45. 45. 982. 45.
1994-01-16 18:00:00 45. 50. 976. 45.
1994-01-17 00:00:00 45. 52. 976. 45.
1994-01-17 06:00:00 40. 52. 976. 40.
1994-01-17 12:00:00 40. 50. 976. 40.
jtwc_sh reunion neumann
1994-01-17 18:00:00 35. 50. 976. 35.
1994-01-18 00:00:00 35. 50. 976. 35.
1994-01-18 06:00:00 35. 42. 985. 35.
1994-01-18 12:00:00 35. 42. 985. 35.
1994-01-18 18:00:00 30. 35. 990. 30.
1994-01-19 00:00:00 30. 35. 992. 30.
1994-01-19 06:00:00 25. 35. 992. 25.
1994-01-19 12:00:00
1994-01-19 18:00:00

top of page Links to source data

Source Source file Format
jtwc_sh bsh101994.txt ATCF
reunion WMO-Best-Tracks.txt:Line=16290:edmea WMO (old format)
neumann tracks.sh:Storm=992:EDMEA:BSH101994:JTWC HURDAT